Milwaukee (MKE/KMKE)

Information

Location
Milwaukee, WI
Local Time
06:49 / 6:49 am
GMT Time
12:49 / 12:49 pm
Gates
Unassigned
No FAA reported delays
METAR KMKE 161234Z 21003KT 5SM -FZRA BR BKN060 OVC080 M01/M06 A3027 RMK AO2 PLB12E31FZRAB31 P0000 I1000 T10111061
TAF KMKE 161129Z 1612/1718 VRB03KT P6SM OVC090 FM161300 VRB03KT 6SM -SNPL OVC060 FM161500 13004KT 5SM -FZRAPL OVC035 FM161800 12005KT 3SM -RA BR OVC015 FM162200 09007KT 1SM -RA BR OVC003 FM170900 07004KT 1/2SM RA FG OVC003 FM171200 04005KT 3/4SM BR OVC003 FM171400 01005KT 5SM BR OVC003
  • No charts available